Time;durP1;ratioP1;P1;durP2;ratioP2;P2;SDS_P1;SDS_P2;PMS_P1;PMS_P2;Temp;Humidity;BMP_temperature;BMP_pressure;BME280_temperature;BME280_humidity;BME280_pressure;Samples;Min_cycle;Max_cycle;Signal;HPM_P1;HPM_P2
2021/06/07 00:01:29;;;;;;;9.03;6.93;;;;;;;20.52;62.97;99367.22;3430034;28;20042;-70
2021/06/07 00:03:10;;;;;;;15.40;7.03;;;;;;;20.53;63.22;99374.28;3430233;28;20098;-71
2021/06/07 00:04:51;;;;;;;8.03;7.17;;;;;;;20.49;63.59;99372.06;3430307;28;20098;-71
2021/06/07 00:06:31;;;;;;;7.47;6.50;;;;;;;20.49;63.44;99376.69;3430323;28;20500;-71
2021/06/07 00:08:12;;;;;;;9.73;6.70;;;;;;;20.47;63.41;99379.69;3430123;28;20061;-72
2021/06/07 00:09:53;;;;;;;9.63;6.80;;;;;;;20.47;63.23;99384.25;3441650;28;20070;-70
2021/06/07 00:11:35;;;;;;;9.63;6.70;;;;;;;20.47;63.04;99384.25;3443544;28;20042;-71
2021/06/07 00:13:16;;;;;;;11.93;7.55;;;;;;;20.44;63.36;99385.59;3441332;28;20054;-71
2021/06/07 00:14:57;;;;;;;7.93;7.18;;;;;;;20.41;63.46;99380.72;3443468;28;20046;-71
2021/06/07 00:16:38;;;;;;;12.68;7.72;;;;;;;20.43;63.46;99394.81;3443684;28;20038;-71
2021/06/07 00:18:20;;;;;;;12.93;7.80;;;;;;;20.40;63.08;99389.13;3443474;28;20050;-70
2021/06/07 00:20:00;;;;;;;;;;;;;;;20.47;62.94;99390.50;3432276;28;20047;-71
2021/06/07 00:21:41;;;;;;;8.52;6.72;;;;;;;20.39;62.90;99387.50;3429732;28;19968;-70
2021/06/07 00:23:22;;;;;;;8.87;6.97;;;;;;;20.36;62.88;99388.84;3430168;28;20047;-71
2021/06/07 00:25:06;;;;;;;9.07;6.93;;;;;;;20.32;62.75;99379.63;3415787;28;20106;-72
2021/06/07 00:26:47;;;;;;;7.50;6.78;;;;;;;20.34;62.94;99384.75;3427977;28;20290;-70
2021/06/07 00:28:28;;;;;;;9.10;6.80;;;;;;;20.32;63.11;99382.34;3429865;28;20039;-71
2021/06/07 00:30:09;;;;;;;9.87;6.97;;;;;;;20.33;62.94;99383.97;3415589;28;20050;-72
2021/06/07 00:31:50;;;;;;;9.73;7.43;;;;;;;20.31;63.04;99385.31;3427459;28;20153;-73
2021/06/07 00:33:31;;;;;;;8.40;6.97;;;;;;;20.31;62.80;99380.69;3430032;28;20450;-70
2021/06/07 00:35:25;;;;;;;8.90;6.70;;;;;;;20.34;62.87;99384.75;3429786;28;20047;-70
2021/06/07 00:37:05;;;;;;;9.38;6.03;;;;;;;20.31;62.78;99386.13;3429835;28;20053;-70
2021/06/07 00:38:47;;;;;;;6.77;6.13;;;;;;;20.30;63.09;99383.69;3430898;28;20050;-70
2021/06/07 00:40:29;;;;;;;7.90;6.50;;;;;;;20.29;62.80;99393.72;3442468;28;20050;-71
2021/06/07 00:42:10;;;;;;;10.82;7.20;;;;;;;20.26;62.86;99384.22;3442981;28;20054;-71
2021/06/07 00:43:57;;;;;;;7.47;6.60;;;;;;;20.27;63.09;99385.03;3443475;28;20073;-71
2021/06/07 00:45:40;;;;;;;6.28;5.65;;;;;;;20.25;62.95;99387.19;3443338;28;20079;-71
2021/06/07 00:47:20;;;;;;;9.38;6.63;;;;;;;20.26;63.11;99380.69;3443132;28;20037;-72
2021/06/07 00:49:03;;;;;;;8.33;6.57;;;;;;;20.23;63.16;99375.81;3439681;28;20580;-71
2021/06/07 00:50:49;;;;;;;8.20;6.93;;;;;;;20.24;62.83;99390.97;3415573;29;20043;-71
2021/06/07 00:52:30;;;;;;;10.18;6.78;;;;;;;20.23;63.07;99381.22;3427597;28;20039;-71
2021/06/07 00:54:11;;;;;;;7.33;6.53;;;;;;;20.21;63.05;99386.06;3415339;29;20054;-70
2021/06/07 00:55:58;;;;;;;8.40;6.68;;;;;;;20.22;63.16;99382.31;3426941;28;20414;-71
2021/06/07 00:57:38;;;;;;;7.45;6.75;;;;;;;20.18;63.09;99383.91;3429640;28;20074;-71
2021/06/07 00:59:19;;;;;;;8.53;6.33;;;;;;;20.20;62.88;99387.16;3434668;28;20039;-70
2021/06/07 01:01:01;;;;;;;7.68;6.35;;;;;;;20.21;63.06;99381.50;3428483;28;20043;-71
2021/06/07 01:02:42;;;;;;;7.78;6.07;;;;;;;20.20;62.93;99384.47;3440438;28;20490;-70
2021/06/07 01:04:23;;;;;;;6.77;6.17;;;;;;;20.19;62.99;99388.25;3443416;28;20104;-70
2021/06/07 01:06:07;;;;;;;7.70;6.75;;;;;;;20.18;63.18;99390.13;3442448;28;20497;-71
2021/06/07 01:07:48;;;;;;;10.93;6.97;;;;;;;20.17;63.11;99385.00;3428565;28;20062;-72
2021/06/07 01:09:29;;;;;;;8.30;6.27;;;;;;;20.17;63.18;99385.81;3437625;28;20133;-72
2021/06/07 01:11:11;;;;;;;8.83;5.47;;;;;;;20.16;63.19;99380.66;3442515;28;20538;-71
2021/06/07 01:12:52;;;;;;;9.15;5.78;;;;;;;20.16;62.78;99383.34;3428305;28;20513;-72
2021/06/07 01:14:33;;;;;;;6.78;5.30;;;;;;;20.16;62.81;99383.34;3440075;28;20505;-70
2021/06/07 01:16:15;;;;;;;11.13;5.32;;;;;;;20.14;62.47;99389.03;3442902;28;20532;-71
2021/06/07 01:17:56;;;;;;;6.23;5.27;;;;;;;20.11;62.48;99380.63;3443019;28;20652;-70
2021/06/07 01:19:36;;;;;;;6.23;5.63;;;;;;;20.13;62.58;99397.41;3440645;28;20050;-70
2021/06/07 01:21:22;;;;;;;8.77;5.88;;;;;;;20.14;63.10;99396.34;3429773;28;20054;-71
2021/06/07 01:23:03;;;;;;;8.88;5.80;;;;;;;20.13;63.01;99390.09;3414995;29;20102;-70
2021/06/07 01:24:44;;;;;;;7.93;5.87;;;;;;;20.13;63.00;99384.69;3426719;28;20554;-71
2021/06/07 01:26:26;;;;;;;7.55;5.75;;;;;;;20.12;62.76;99393.09;3429032;28;20645;-70
2021/06/07 01:28:09;;;;;;;7.65;5.30;;;;;;;20.12;63.10;99387.69;3429015;28;20042;-70
2021/06/07 01:29:50;;;;;;;8.23;5.78;;;;;;;20.12;62.98;99395.81;3432245;28;20046;-71
2021/06/07 01:31:30;;;;;;;7.53;5.90;;;;;;;20.08;63.02;99391.97;3415113;29;20427;-71
2021/06/07 01:33:13;;;;;;;6.67;5.63;;;;;;;20.09;62.58;99390.94;3436981;28;20185;-71
2021/06/07 01:34:54;;;;;;;10.32;5.18;;;;;;;20.05;62.77;99386.00;3441889;28;20062;-70
2021/06/07 01:36:35;;;;;;;8.07;5.73;;;;;;;20.05;62.62;99380.59;3428119;28;20526;-70
2021/06/07 01:38:16;;;;;;;5.72;4.95;;;;;;;20.07;62.56;99379.53;3425494;28;20046;-72
2021/06/07 01:39:57;;;;;;;7.03;5.30;;;;;;;20.07;62.41;99390.38;3435008;28;20042;-71
2021/06/07 01:41:38;;;;;;;7.25;5.40;;;;;;;20.06;62.42;99389.56;3428904;28;20126;-69
2021/06/07 01:43:19;;;;;;;7.35;5.57;;;;;;;20.08;62.33;99394.69;3429759;28;20047;-71
2021/06/07 01:45:09;;;;;;;6.78;5.35;;;;;;;20.05;62.56;99388.72;3442200;28;20424;-71
2021/06/07 01:46:50;;;;;;;6.70;5.28;;;;;;;20.08;62.53;99386.56;3427578;28;20418;-70
2021/06/07 01:48:31;;;;;;;10.33;5.83;;;;;;;20.04;62.67;99384.41;3425329;28;20047;-70
2021/06/07 01:50:13;;;;;;;8.13;5.90;;;;;;;20.07;62.74;99387.66;3438730;28;20099;-70
2021/06/07 01:51:54;;;;;;;5.90;4.80;;;;;;;20.07;62.81;99387.66;3441412;28;20126;-72
2021/06/07 01:53:35;;;;;;;5.77;5.10;;;;;;;20.09;62.36;99383.63;3441887;28;20077;-71
2021/06/07 01:55:17;;;;;;;6.13;5.53;;;;;;;20.08;62.41;99383.88;3442038;28;20046;-71
2021/06/07 01:56:59;;;;;;;6.63;5.68;;;;;;;20.08;62.85;99387.38;3442534;28;20042;-71
2021/06/07 01:58:41;;;;;;;6.97;5.85;;;;;;;20.09;63.00;99394.44;3442479;28;20575;-70
2021/06/07 02:00:26;;;;;;;5.75;5.25;;;;;;;20.10;62.86;99393.34;3440853;28;20038;-71
2021/06/07 02:02:07;;;;;;;7.18;5.88;;;;;;;20.10;62.53;99390.66;3446911;28;20138;-69
2021/06/07 02:03:49;;;;;;;6.80;5.87;;;;;;;20.08;62.43;99397.41;3459139;28;20018;-70
2021/06/07 02:05:31;;;;;;;8.65;7.68;;;;;;;20.11;62.74;99399.56;3458522;28;20077;-66
2021/06/07 02:07:12;;;;;;;8.93;6.70;;;;;;;20.10;62.44;99396.06;3454670;28;20143;-67
2021/06/07 02:08:53;;;;;;;10.30;8.63;;;;;;;20.08;62.54;99397.41;3448721;28;20050;-69
2021/06/07 02:10:46;;;;;;;15.00;8.95;;;;;;;20.14;62.50;99396.34;3436944;28;20174;-68
2021/06/07 02:12:27;;;;;;;11.38;7.97;;;;;;;20.12;62.51;99388.50;3428799;28;20050;-69
2021/06/07 02:14:09;;;;;;;8.98;8.07;;;;;;;20.15;62.38;99401.47;3428787;28;20101;-69
2021/06/07 02:16:02;;;;;;;10.70;7.18;;;;;;;20.17;62.79;99398.53;3428569;28;20133;-68
2021/06/07 02:17:43;;;;;;;6.90;6.18;;;;;;;20.18;62.49;99403.66;3428687;28;20039;-68
2021/06/07 02:19:24;;;;;;;8.48;7.57;;;;;;;20.18;62.49;99402.84;3437870;28;20335;-68
2021/06/07 02:21:06;;;;;;;10.60;7.15;;;;;;;20.19;62.83;99401.78;3441064;28;20046;-69
2021/06/07 02:22:48;;;;;;;11.07;8.00;;;;;;;20.19;62.50;99399.09;3441903;28;20421;-69
2021/06/07 02:24:28;;;;;;;8.50;7.60;;;;;;;20.21;62.54;99403.16;3441917;28;20382;-70
2021/06/07 02:26:09;;;;;;;8.63;7.80;;;;;;;20.23;62.36;99405.56;3430396;28;20053;-69
2021/06/07 02:27:51;;;;;;;8.33;7.40;;;;;;;20.24;62.57;99401.81;3428479;28;20035;-70
2021/06/07 02:29:32;;;;;;;;;;;;;;;20.32;62.09;99397.78;3428787;28;20051;-69
2021/06/07 02:31:12;;;;;;;8.65;7.40;;;;;;;20.27;62.50;99390.44;3428197;28;19914;-71
2021/06/07 02:32:55;;;;;;;8.97;8.07;;;;;;;20.27;62.35;99395.88;3428096;28;20549;-72
2021/06/07 02:34:37;;;;;;;11.23;9.88;;;;;;;20.26;62.57;99399.63;3424881;28;20063;-71
2021/06/07 02:36:18;;;;;;;20.42;15.48;;;;;;;20.29;62.24;99399.13;3438787;28;20042;-70
2021/06/07 02:37:59;;;;;;;20.02;15.52;;;;;;;20.32;62.44;99403.19;3441380;28;20038;-72
2021/06/07 02:39:40;;;;;;;18.55;12.30;;;;;;;20.32;62.34;99393.16;3441850;28;20038;-71
2021/06/07 02:41:21;;;;;;;13.03;10.83;;;;;;;20.34;62.11;99396.44;3428602;28;20129;-69
2021/06/07 02:43:02;;;;;;;10.50;8.55;;;;;;;20.35;62.40;99392.63;3428241;28;20422;-70
2021/06/07 02:44:43;;;;;;;11.88;9.60;;;;;;;20.35;62.52;99389.94;3428402;28;20101;-70
2021/06/07 02:46:24;;;;;;;9.23;8.33;;;;;;;20.39;62.17;99387.50;3428250;28;20521;-70
2021/06/07 02:48:05;;;;;;;9.60;8.67;;;;;;;20.42;62.41;99404.03;3428139;28;20410;-70
2021/06/07 02:49:46;;;;;;;9.32;7.95;;;;;;;20.43;61.86;99397.53;3428144;28;20046;-70
2021/06/07 02:51:27;;;;;;;12.20;7.55;;;;;;;20.45;61.92;99398.06;3440137;28;20141;-70
2021/06/07 02:53:08;;;;;;;9.82;7.70;;;;;;;20.45;62.14;99403.50;3441460;28;20101;-69
2021/06/07 02:54:49;;;;;;;10.93;6.90;;;;;;;20.49;61.90;99407.28;3440983;28;20073;-70
2021/06/07 02:56:30;;;;;;;9.90;7.27;;;;;;;20.54;61.57;99403.81;3427361;28;20042;-70
2021/06/07 02:58:11;;;;;;;9.13;7.23;;;;;;;20.57;61.58;99405.16;3427657;28;20051;-71
2021/06/07 02:59:52;;;;;;;9.27;7.28;;;;;;;20.60;61.42;99407.34;3427888;28;20831;-71
2021/06/07 03:01:32;;;;;;;11.37;6.67;;;;;;;20.63;61.28;99398.69;3440352;28;20046;-71
2021/06/07 03:03:13;;;;;;;7.60;6.53;;;;;;;20.64;61.36;99405.72;3442637;28;20133;-70
2021/06/07 03:04:54;;;;;;;9.25;7.55;;;;;;;20.66;61.10;99403.56;3445842;28;20512;-71
2021/06/07 03:06:35;;;;;;;7.32;6.70;;;;;;;20.67;61.06;99403.28;3445743;28;20124;-70
2021/06/07 03:08:19;;;;;;;8.87;6.87;;;;;;;20.67;60.67;99402.47;3445595;28;20124;-69
2021/06/07 03:10:00;;;;;;;13.00;11.60;;;;;;;20.67;60.88;99402.47;3429757;28;20035;-70
2021/06/07 03:11:41;;;;;;;26.07;20.43;;;;;;;20.67;60.57;99406.00;3429264;28;20066;-69
2021/06/07 03:13:22;;;;;;;14.97;12.77;;;;;;;20.69;60.26;99408.44;3432560;28;20057;-70
2021/06/07 03:15:06;;;;;;;12.55;9.23;;;;;;;20.69;60.53;99400.31;3432223;28;20043;-70
2021/06/07 03:16:47;;;;;;;8.40;7.00;;;;;;;20.72;60.36;99401.69;3433501;28;20043;-70
2021/06/07 03:18:28;;;;;;;9.03;7.53;;;;;;;20.73;60.22;99401.44;3431941;28;20130;-69
2021/06/07 03:20:12;;;;;;;9.63;6.73;;;;;;;20.77;59.87;99410.63;3432302;28;20042;-69
2021/06/07 03:21:53;;;;;;;8.30;6.10;;;;;;;20.80;59.69;99393.81;3432217;28;20298;-69
2021/06/07 03:23:35;;;;;;;7.00;5.90;;;;;;;20.81;59.80;99398.19;3432160;28;20039;-69
2021/06/07 03:25:16;;;;;;;6.72;6.03;;;;;;;20.83;59.60;99404.16;3435732;28;20068;-69
2021/06/07 03:26:58;;;;;;;9.23;6.22;;;;;;;20.88;59.80;99395.19;3445778;28;20093;-70
2021/06/07 03:28:40;;;;;;;8.23;6.37;;;;;;;20.88;59.92;99396.03;3444576;28;20512;-69
2021/06/07 03:30:21;;;;;;;6.80;5.93;;;;;;;20.92;59.97;99397.09;3445602;28;20316;-71
2021/06/07 03:32:02;;;;;;;7.13;5.18;;;;;;;20.96;59.73;99400.09;3445560;28;20042;-71
2021/06/07 03:33:43;;;;;;;7.13;6.18;;;;;;;20.99;59.78;99390.59;3445709;28;20046;-70
2021/06/07 03:35:24;;;;;;;10.90;6.47;;;;;;;21.03;59.46;99391.69;3444828;28;20048;-70
2021/06/07 03:37:05;;;;;;;6.53;5.88;;;;;;;21.08;59.34;99399.81;3445005;28;20038;-70
2021/06/07 03:38:46;;;;;;;6.90;5.33;;;;;;;21.11;59.14;99394.66;3445966;28;20088;-72
2021/06/07 03:40:29;;;;;;;8.90;5.57;;;;;;;21.14;59.02;99390.59;3445787;28;20137;-71
2021/06/07 03:42:10;;;;;;;5.40;4.63;;;;;;;21.21;59.60;99388.44;3443412;28;21090;-71
2021/06/07 03:43:51;;;;;;;7.23;5.23;;;;;;;21.28;59.10;99388.16;3445499;28;20130;-71
2021/06/07 03:45:32;;;;;;;6.03;4.90;;;;;;;21.32;58.79;99390.06;3445908;28;20465;-70
2021/06/07 03:47:13;;;;;;;6.90;4.97;;;;;;;21.37;58.49;99391.13;3446231;28;20046;-71
2021/06/07 03:48:53;;;;;;;5.60;5.07;;;;;;;21.40;58.62;99396.03;3446443;28;20042;-70
2021/06/07 03:50:36;;;;;;;9.70;4.67;;;;;;;21.41;58.36;99393.06;3445775;28;20038;-71
2021/06/07 03:52:16;;;;;;;8.65;5.55;;;;;;;21.43;58.34;99395.50;3431300;28;20109;-71
2021/06/07 03:53:57;;;;;;;6.93;5.13;;;;;;;21.46;58.13;99394.94;3443390;28;20464;-71
2021/06/07 03:55:39;;;;;;;5.73;5.23;;;;;;;21.47;57.72;99391.16;3439539;28;20133;-69
2021/06/07 03:57:20;;;;;;;5.00;4.30;;;;;;;21.48;57.55;99399.03;3432942;28;20085;-71
2021/06/07 03:59:01;;;;;;;6.47;5.53;;;;;;;21.51;58.14;99392.22;3432452;28;20509;-70
2021/06/07 04:00:41;;;;;;;4.53;4.13;;;;;;;21.62;59.25;99393.03;3432239;28;20039;-69
2021/06/07 04:02:23;;;;;;;6.30;4.53;;;;;;;21.75;59.66;99393.25;3432105;28;20433;-71
2021/06/07 04:04:04;;;;;;;18.20;4.28;;;;;;;21.89;59.74;99387.22;3442250;28;20456;-72
2021/06/07 04:05:45;;;;;;;9.80;5.22;;;;;;;22.04;59.62;99389.09;3445693;28;20041;-71
2021/06/07 04:07:25;;;;;;;7.70;4.83;;;;;;;22.14;59.56;99395.28;3445427;28;20052;-71
2021/06/07 04:09:06;;;;;;;6.17;3.83;;;;;;;22.26;59.51;99386.84;3445446;28;20141;-73
2021/06/07 04:10:47;;;;;;;9.53;4.30;;;;;;;22.33;59.17;99391.97;3437045;28;20535;-70
2021/06/07 04:12:29;;;;;;;7.07;4.60;;;;;;;22.40;58.53;99384.31;3432009;28;20600;-72
2021/06/07 04:14:10;;;;;;;9.88;4.85;;;;;;;22.48;59.10;99389.16;3434631;28;20281;-71
2021/06/07 04:15:50;;;;;;;8.97;4.70;;;;;;;22.54;59.51;99385.34;3434752;28;20133;-71
2021/06/07 04:17:31;;;;;;;14.53;5.80;;;;;;;22.60;59.91;99392.34;3430083;28;20069;-72
2021/06/07 04:19:12;;;;;;;7.37;4.37;;;;;;;22.65;59.82;99394.25;3430200;28;20057;-71
2021/06/07 04:20:54;;;;;;;8.85;4.38;;;;;;;22.69;60.36;99392.59;3430173;28;20043;-70
2021/06/07 04:22:36;;;;;;;9.02;3.85;;;;;;;22.75;60.79;99393.38;3429976;28;20140;-72
2021/06/07 04:24:17;;;;;;;10.70;4.20;;;;;;;22.79;59.93;99400.66;3416336;28;20948;-69
2021/06/07 04:25:58;;;;;;;5.55;3.92;;;;;;;22.84;60.05;99394.38;3436602;28;20049;-71
2021/06/07 04:27:40;;;;;;;6.77;3.23;;;;;;;22.90;59.67;99395.97;3442853;28;20038;-70
2021/06/07 04:29:21;;;;;;;6.25;3.10;;;;;;;22.96;59.67;99397.56;3443431;28;20145;-71
2021/06/07 04:31:02;;;;;;;6.17;3.53;;;;;;;22.99;59.48;99383.41;3443253;28;20049;-70
2021/06/07 04:32:44;;;;;;;11.13;4.07;;;;;;;23.06;59.32;99396.69;3443653;28;20042;-70
2021/06/07 04:34:25;;;;;;;11.02;3.83;;;;;;;23.11;58.79;99399.38;3442528;28;20046;-70
2021/06/07 04:36:06;;;;;;;9.47;3.50;;;;;;;23.15;58.42;99394.16;3429799;28;20042;-71
2021/06/07 04:37:51;;;;;;;9.03;3.20;;;;;;;23.21;58.06;99395.75;3433085;28;20476;-71
2021/06/07 04:39:32;;;;;;;4.20;3.15;;;;;;;23.27;57.61;99391.88;3429005;28;20042;-71
2021/06/07 04:41:13;;;;;;;6.18;2.95;;;;;;;23.32;57.04;99397.28;3414816;29;20047;-72
2021/06/07 04:42:54;;;;;;;4.13;3.03;;;;;;;23.38;56.54;99406.19;3427015;28;20058;-71
2021/06/07 04:44:35;;;;;;;5.85;3.05;;;;;;;23.42;56.10;99405.34;3430771;28;20039;-71
2021/06/07 04:46:16;;;;;;;11.33;3.40;;;;;;;23.49;56.04;99399.56;3428871;28;20453;-71
2021/06/07 04:47:57;;;;;;;6.70;2.70;;;;;;;23.56;55.70;99399.22;3412576;29;20071;-71
2021/06/07 04:49:37;;;;;;;5.10;2.50;;;;;;;23.64;55.89;99406.75;3427260;28;20201;-70
2021/06/07 04:51:18;;;;;;;3.37;2.63;;;;;;;23.72;56.03;99411.59;3429979;28;20109;-71
2021/06/07 04:53:00;;;;;;;5.33;2.57;;;;;;;23.78;56.11;99402.31;3430776;28;20038;-71
2021/06/07 04:54:41;;;;;;;3.38;2.88;;;;;;;23.85;56.00;99408.22;3430893;28;20461;-72
2021/06/07 04:56:21;;;;;;;7.60;2.57;;;;;;;23.88;55.71;99418.53;3429950;28;20070;-72
2021/06/07 04:58:14;;;;;;;7.13;2.67;;;;;;;23.91;55.03;99412.50;3430064;28;20576;-70
2021/06/07 04:59:54;;;;;;;3.88;2.33;;;;;;;23.93;55.06;99417.63;3415609;29;20047;-72
2021/06/07 05:01:36;;;;;;;10.97;2.73;;;;;;;23.93;55.77;99410.31;3412356;29;20126;-71
2021/06/07 05:03:18;;;;;;;5.90;2.95;;;;;;;23.99;56.33;99410.25;3430082;28;20114;-70
2021/06/07 05:04:58;;;;;;;3.95;2.55;;;;;;;24.03;56.76;99405.81;3442999;28;20045;-70
2021/06/07 05:06:39;;;;;;;4.80;3.33;;;;;;;24.04;56.69;99418.34;3442852;28;20460;-69
2021/06/07 05:08:20;;;;;;;6.33;1.93;;;;;;;24.10;56.31;99417.19;3442660;28;20425;-69
2021/06/07 05:10:01;;;;;;;4.63;2.33;;;;;;;24.11;56.18;99411.44;3441013;28;20290;-70
2021/06/07 05:11:42;;;;;;;5.97;2.45;;;;;;;24.15;56.15;99412.47;3429408;28;20279;-70
2021/06/07 05:13:24;;;;;;;4.80;2.37;;;;;;;24.19;55.72;99415.44;3415033;29;20047;-72
2021/06/07 05:15:06;;;;;;;;;;;;;;;24.25;55.73;99410.75;3426669;28;20055;-71
2021/06/07 05:16:46;;;;;;;4.68;2.10;;;;;;;24.21;55.17;99413.22;3429132;28;20021;-72
2021/06/07 05:18:27;;;;;;;2.07;1.87;;;;;;;24.23;54.89;99413.75;3429380;28;20398;-74
2021/06/07 05:20:11;;;;;;;6.80;2.10;;;;;;;24.24;54.89;99414.53;3430393;28;20050;-71
2021/06/07 05:21:53;;;;;;;3.08;1.85;;;;;;;24.23;54.50;99408.28;3442363;28;20042;-74
2021/06/07 05:23:34;;;;;;;4.60;2.17;;;;;;;24.23;54.08;99413.75;3428229;28;20477;-69
2021/06/07 05:25:17;;;;;;;3.28;2.15;;;;;;;24.26;53.87;99420.50;3439369;28;20551;-70
2021/06/07 05:27:01;;;;;;;13.20;2.10;;;;;;;24.26;53.85;99420.50;3440989;28;20509;-70
2021/06/07 05:28:42;;;;;;;5.85;2.03;;;;;;;24.26;53.91;99417.78;3442438;28;20043;-69
2021/06/07 05:30:24;;;;;;;3.90;2.57;;;;;;;24.23;52.55;99421.91;3440768;28;20038;-70
2021/06/07 05:32:05;;;;;;;4.50;2.20;;;;;;;24.18;51.87;99419.25;3428707;28;20057;-69
2021/06/07 05:33:46;;;;;;;3.63;2.55;;;;;;;24.11;51.27;99422.34;3429111;28;20043;-69
2021/06/07 05:35:30;;;;;;;3.57;1.80;;;;;;;24.06;51.48;99427.84;3428925;28;20597;-69
2021/06/07 05:37:11;;;;;;;4.30;2.15;;;;;;;23.99;51.54;99419.22;3428066;28;20093;-69
2021/06/07 05:38:51;;;;;;;3.97;2.30;;;;;;;23.97;51.34;99426.03;3438861;28;20505;-69
2021/06/07 05:40:32;;;;;;;2.57;2.17;;;;;;;23.95;51.25;99423.59;3441971;28;20132;-69
2021/06/07 05:42:13;;;;;;;8.60;2.50;;;;;;;23.94;51.03;99428.25;3442119;28;20049;-68
2021/06/07 05:43:54;;;;;;;3.10;2.20;;;;;;;23.95;51.18;99420.88;3414517;29;20306;-70
2021/06/07 05:45:35;;;;;;;5.03;2.07;;;;;;;23.95;51.33;99420.88;3434778;28;20105;-70
2021/06/07 05:47:17;;;;;;;4.32;1.92;;;;;;;23.95;51.25;99421.69;3441962;28;20137;-70
2021/06/07 05:48:58;;;;;;;3.78;2.50;;;;;;;23.99;51.05;99426.56;3441493;28;20069;-70
2021/06/07 05:50:40;;;;;;;14.13;2.50;;;;;;;24.00;51.10;99423.53;3442085;28;20425;-71
2021/06/07 05:52:22;;;;;;;3.17;2.05;;;;;;;24.05;51.49;99425.41;3426917;28;20055;-70
2021/06/07 05:54:03;;;;;;;4.83;2.13;;;;;;;24.09;51.71;99426.47;3438975;28;20042;-69
2021/06/07 05:55:45;;;;;;;6.03;2.00;;;;;;;24.12;51.11;99425.88;3429520;28;20047;-69
2021/06/07 05:57:26;;;;;;;4.53;2.67;;;;;;;24.13;51.11;99422.03;3428460;28;20490;-70
2021/06/07 05:59:07;;;;;;;7.27;2.57;;;;;;;24.17;51.26;99423.09;3430546;28;20039;-70
2021/06/07 06:00:50;;;;;;;3.75;3.00;;;;;;;24.17;50.96;99415.72;3441906;28;20046;-71
2021/06/07 06:02:33;;;;;;;6.28;2.70;;;;;;;24.21;50.86;99418.66;3441885;28;20505;-72
2021/06/07 06:04:13;;;;;;;6.25;2.63;;;;;;;24.24;50.69;99417.28;3443286;28;20043;-70
2021/06/07 06:05:55;;;;;;;4.43;2.50;;;;;;;24.27;50.82;99422.97;3443170;28;20031;-71
2021/06/07 06:07:37;;;;;;;6.10;2.72;;;;;;;24.28;50.59;99419.13;3427866;28;20098;-71
2021/06/07 06:09:18;;;;;;;3.27;2.60;;;;;;;24.29;50.29;99414.47;3427871;28;20461;-70
2021/06/07 06:10:59;;;;;;;5.82;2.85;;;;;;;24.28;50.17;99416.41;3429479;28;20078;-69
2021/06/07 06:12:40;;;;;;;5.53;2.47;;;;;;;24.32;50.29;99414.72;3427879;28;20136;-69
2021/06/07 06:14:21;;;;;;;10.82;2.90;;;;;;;24.35;50.12;99407.88;3427637;28;20058;-70
2021/06/07 06:16:02;;;;;;;5.90;2.40;;;;;;;24.41;49.82;99411.34;3435517;28;20041;-70
2021/06/07 06:17:43;;;;;;;5.85;2.47;;;;;;;24.48;49.71;99415.34;3436372;28;20035;-70
2021/06/07 06:19:24;;;;;;;4.80;2.50;;;;;;;24.54;50.00;99416.09;3428391;28;20046;-70
2021/06/07 06:21:06;;;;;;;3.67;2.20;;;;;;;24.56;49.61;99420.16;3428217;28;20038;-70
2021/06/07 06:22:47;;;;;;;4.13;2.17;;;;;;;24.56;49.24;99416.63;3428826;28;20038;-70
2021/06/07 06:24:28;;;;;;;2.30;1.90;;;;;;;24.54;49.16;99416.09;3415058;28;20395;-69
2021/06/07 06:26:09;;;;;;;16.03;2.43;;;;;;;24.56;49.39;99419.34;3426040;28;20138;-70
2021/06/07 06:27:50;;;;;;;2.40;2.20;;;;;;;24.55;49.45;99420.44;3438377;28;20043;-70
2021/06/07 06:29:33;;;;;;;2.60;1.80;;;;;;;24.57;49.36;99416.31;3434665;28;20112;-70
2021/06/07 06:31:15;;;;;;;3.97;2.30;;;;;;;24.57;49.55;99423.69;3437075;28;20046;-71
2021/06/07 06:32:58;;;;;;;3.00;1.75;;;;;;;24.58;49.05;99420.66;3436640;28;20046;-71
2021/06/07 06:34:40;;;;;;;3.47;2.50;;;;;;;24.61;49.31;99419.28;3432194;28;20047;-70
2021/06/07 06:36:21;;;;;;;2.15;1.67;;;;;;;24.65;49.64;99417.56;3432668;28;20090;-70
2021/06/07 06:38:01;;;;;;;4.10;2.30;;;;;;;24.69;49.46;99418.59;3429257;28;20053;-71
2021/06/07 06:39:42;;;;;;;3.77;1.50;;;;;;;24.72;49.46;99418.00;3440921;28;20038;-70
2021/06/07 06:41:23;;;;;;;3.70;1.83;;;;;;;24.74;49.45;99417.72;3429860;28;20046;-70
2021/06/07 06:43:06;;;;;;;5.93;2.33;;;;;;;24.77;49.21;99419.84;3431027;28;20061;-70
2021/06/07 06:44:46;;;;;;;2.22;2.03;;;;;;;24.78;49.22;99421.47;3429216;28;20049;-69
2021/06/07 06:46:27;;;;;;;3.07;2.33;;;;;;;24.75;49.08;99413.88;3416765;28;20045;-69
2021/06/07 06:48:09;;;;;;;5.07;2.07;;;;;;;24.77;48.79;99417.94;3437821;28;20038;-69
2021/06/07 06:49:49;;;;;;;4.53;2.97;;;;;;;24.75;48.92;99411.16;3429784;28;20050;-71
2021/06/07 06:51:31;;;;;;;4.60;2.50;;;;;;;24.73;48.63;99411.47;3428303;28;20518;-70
2021/06/07 06:53:15;;;;;;;9.05;2.20;;;;;;;24.70;48.55;99414.75;3436379;28;20135;-70
2021/06/07 06:54:56;;;;;;;4.32;2.20;;;;;;;24.68;48.58;99417.00;3438743;28;20121;-69
2021/06/07 06:56:36;;;;;;;3.87;2.23;;;;;;;24.66;48.79;99421.94;3441663;28;20038;-71
2021/06/07 06:58:18;;;;;;;2.67;2.27;;;;;;;24.65;48.80;99422.19;3439691;28;20049;-72
2021/06/07 06:59:59;;;;;;;2.78;2.13;;;;;;;24.62;48.91;99423.59;3441707;28;20050;-72
2021/06/07 07:01:39;;;;;;;1.67;1.57;;;;;;;24.59;48.75;99421.47;3441115;28;20104;-72
2021/06/07 07:03:34;;;;;;;2.50;1.55;;;;;;;24.57;48.63;99426.41;3438451;28;20046;-70
2021/06/07 07:05:15;;;;;;;3.67;1.90;;;;;;;24.56;48.68;99431.03;3438095;28;20137;-69
2021/06/07 07:06:55;;;;;;;3.60;1.97;;;;;;;24.54;48.61;99427.78;3423199;28;20050;-69
2021/06/07 07:08:36;;;;;;;3.43;2.47;;;;;;;24.54;48.72;99427.78;3435623;28;20038;-70
2021/06/07 07:10:17;;;;;;;4.17;1.73;;;;;;;24.57;48.70;99427.19;3430818;28;20056;-70
2021/06/07 07:11:58;;;;;;;4.97;1.90;;;;;;;24.62;48.96;99429.06;3441156;28;20417;-71
2021/06/07 07:13:39;;;;;;;4.73;2.30;;;;;;;24.65;48.78;99430.38;3428781;28;20035;-71
2021/06/07 07:15:20;;;;;;;4.60;2.93;;;;;;;24.70;48.82;99442.00;3428902;28;20066;-72
2021/06/07 07:17:00;;;;;;;4.07;2.50;;;;;;;24.74;49.01;99442.25;3436423;28;20668;-70
2021/06/07 07:18:41;;;;;;;4.27;1.73;;;;;;;24.80;48.90;99435.63;3440791;28;20108;-70
2021/06/07 07:20:24;;;;;;;6.85;2.53;;;;;;;24.85;48.73;99434.75;3435143;28;20125;-69
2021/06/07 07:22:05;;;;;;;2.23;1.83;;;;;;;24.92;48.76;99437.91;3428517;28;20607;-71
2021/06/07 07:23:46;;;;;;;3.60;2.20;;;;;;;25.03;48.92;99442.09;3413600;29;20053;-70
2021/06/07 07:25:26;;;;;;;2.03;1.83;;;;;;;25.21;48.47;99437.75;3428957;28;20053;-70
2021/06/07 07:27:07;;;;;;;2.07;1.87;;;;;;;25.46;48.37;99436.50;3441077;28;20538;-70
2021/06/07 07:28:48;;;;;;;3.40;2.03;;;;;;;25.73;47.74;99426.75;3440768;28;20457;-71
2021/06/07 07:30:31;;;;;;;9.53;2.47;;;;;;;25.94;47.66;99438.13;3441074;28;20038;-71
2021/06/07 07:32:12;;;;;;;7.40;2.15;;;;;;;26.13;47.16;99436.13;3426064;28;20043;-71
2021/06/07 07:33:53;;;;;;;;;;;;;;;26.34;47.35;99441.97;3429812;28;20129;-70
2021/06/07 07:35:34;;;;;;;3.47;2.20;;;;;;;26.48;46.75;99434.53;3427166;28;20459;-71
2021/06/07 07:37:15;;;;;;;4.35;2.03;;;;;;;26.61;46.33;99432.94;3427975;28;20050;-71
2021/06/07 07:38:56;;;;;;;6.28;2.38;;;;;;;26.73;46.04;99435.13;3420079;28;20105;-71
2021/06/07 07:40:38;;;;;;;2.87;2.30;;;;;;;26.78;45.98;99431.47;3411485;28;20131;-70
2021/06/07 07:42:19;;;;;;;3.80;2.42;;;;;;;26.79;45.59;99436.63;3424937;28;20058;-71
2021/06/07 07:44:01;;;;;;;3.20;2.23;;;;;;;26.79;45.63;99433.09;3434634;28;20421;-70
2021/06/07 07:45:42;;;;;;;3.47;2.22;;;;;;;26.79;45.67;99438.56;3438097;28;20040;-70
2021/06/07 07:47:25;;;;;;;8.45;2.63;;;;;;;26.78;45.73;99432.28;3438224;28;20077;-72
2021/06/07 07:49:08;;;;;;;4.28;2.30;;;;;;;26.85;45.83;99426.38;3432607;28;20046;-72
2021/06/07 07:50:49;;;;;;;8.18;2.10;;;;;;;26.97;45.76;99430.19;3437765;28;20042;-69
2021/06/07 07:52:32;;;;;;;4.43;2.75;;;;;;;27.16;45.20;99426.47;3442138;28;20125;-71
2021/06/07 07:54:13;;;;;;;;;;;;;;;27.38;45.31;99431.13;3427682;28;20139;-71
2021/06/07 07:55:55;;;;;;;5.20;1.98;;;;;;;27.57;44.95;99433.66;3439456;28;19917;-69
2021/06/07 07:57:37;;;;;;;3.85;2.13;;;;;;;27.76;44.97;99431.50;3442711;28;20038;-70
2021/06/07 07:59:18;;;;;;;9.15;2.50;;;;;;;27.86;44.87;99437.88;3442241;28;20034;-70